createdAt,value
2018-04-09T00:00:00.567Z,0.00
2018-04-09T00:01:00.592Z,0.00
2018-04-09T00:02:00.619Z,0.00
2018-04-09T00:03:00.633Z,0.00
2018-04-09T00:04:00.665Z,0.00
2018-04-09T00:05:00.678Z,0.00
2018-04-09T00:06:00.709Z,0.00
2018-04-09T00:07:00.724Z,0.00
2018-04-09T00:08:00.749Z,0.00
2018-04-09T00:09:00.777Z,0.00
2018-04-09T00:10:00.792Z,0.00
2018-04-09T00:11:00.820Z,0.00
2018-04-09T00:12:00.841Z,0.00
2018-04-09T00:13:00.860Z,0.00
2018-04-09T00:14:00.888Z,0.00
2018-04-09T00:15:00.909Z,0.00
2018-04-09T00:16:00.928Z,0.00
2018-04-09T00:17:00.947Z,0.00
2018-04-09T00:18:00.975Z,0.00
2018-04-09T00:19:00.995Z,0.00
2018-04-09T00:20:01.021Z,0.00
2018-04-09T00:21:01.049Z,0.00
2018-04-09T00:22:01.065Z,0.00
2018-04-09T00:23:01.084Z,0.00
2018-04-09T00:24:01.111Z,0.00
2018-04-09T00:25:01.128Z,0.00
2018-04-09T00:26:01.153Z,0.00
2018-04-09T00:27:01.178Z,0.00
2018-04-09T00:28:01.197Z,0.00
2018-04-09T00:29:01.221Z,0.00
2018-04-09T00:30:01.238Z,0.00
2018-04-09T00:31:01.266Z,0.00
2018-04-09T00:32:01.288Z,0.00
2018-04-09T00:33:01.308Z,0.00
2018-04-09T00:34:01.330Z,0.00
2018-04-09T00:35:01.355Z,0.00
2018-04-09T00:36:01.379Z,0.00
2018-04-09T00:37:01.398Z,0.00
2018-04-09T00:38:01.424Z,0.00
2018-04-09T00:39:01.440Z,0.00
2018-04-09T00:40:01.471Z,0.00
2018-04-09T00:41:01.488Z,0.00
2018-04-09T00:42:01.505Z,0.00
2018-04-09T00:43:01.535Z,0.00
2018-04-09T00:44:01.551Z,0.00
2018-04-09T00:45:01.581Z,0.00
2018-04-09T00:46:01.598Z,0.00
2018-04-09T00:47:01.616Z,0.00
2018-04-09T00:48:01.647Z,0.00
2018-04-09T00:49:01.662Z,0.00
2018-04-09T00:50:01.683Z,0.00
2018-04-09T00:51:01.713Z,0.00
2018-04-09T00:52:01.737Z,0.00
2018-04-09T00:53:01.757Z,0.00
2018-04-09T00:54:01.777Z,0.00
2018-04-09T00:55:01.798Z,0.00
2018-04-09T00:56:01.823Z,0.00
2018-04-09T00:57:01.841Z,0.00
2018-04-09T00:58:01.864Z,0.00
2018-04-09T00:59:01.889Z,0.00
2018-04-09T01:00:01.908Z,0.00
2018-04-09T01:01:01.932Z,0.00
2018-04-09T01:02:01.956Z,0.00
2018-04-09T01:03:01.974Z,0.00
2018-04-09T01:04:01.995Z,0.00
2018-04-09T01:05:02.019Z,0.00
2018-04-09T01:06:02.041Z,0.00
2018-04-09T01:07:02.062Z,0.00
2018-04-09T01:08:02.091Z,0.00
2018-04-09T01:09:02.111Z,0.00
2018-04-09T01:10:02.129Z,0.00
2018-04-09T01:11:02.159Z,0.00
2018-04-09T01:12:02.179Z,0.00
2018-04-09T01:13:02.192Z,0.00
2018-04-09T01:14:02.225Z,0.00
2018-04-09T01:15:02.240Z,0.00
2018-04-09T01:16:02.260Z,0.00
2018-04-09T01:17:02.290Z,0.00
2018-04-09T01:18:02.312Z,0.00
2018-04-09T01:19:02.327Z,0.00
2018-04-09T01:20:02.353Z,0.00
2018-04-09T01:21:02.370Z,0.00
2018-04-09T01:22:02.393Z,0.00
2018-04-09T01:23:02.417Z,0.00
2018-04-09T01:24:02.443Z,0.00
2018-04-09T01:25:02.461Z,0.00
2018-04-09T01:26:02.482Z,0.00
2018-04-09T01:27:02.511Z,0.00
2018-04-09T01:28:02.531Z,0.00
2018-04-09T01:29:02.551Z,0.00
2018-04-09T01:30:02.576Z,0.00
2018-04-09T01:31:02.593Z,0.00
2018-04-09T01:32:02.618Z,0.00
2018-04-09T01:33:02.643Z,0.00
2018-04-09T01:34:02.668Z,0.00
2018-04-09T01:35:02.688Z,0.00
2018-04-09T01:36:02.712Z,0.00
2018-04-09T01:37:02.725Z,0.00
2018-04-09T01:38:02.751Z,0.00
2018-04-09T01:39:02.768Z,0.00
2018-04-09T01:40:02.788Z,0.00
2018-04-09T01:41:02.818Z,0.00
2018-04-09T01:42:02.832Z,0.00
2018-04-09T01:43:02.865Z,0.00
2018-04-09T01:44:02.883Z,0.00
2018-04-09T01:45:02.904Z,0.00
2018-04-09T01:46:02.928Z,0.00
2018-04-09T01:47:02.941Z,0.00
2018-04-09T01:48:02.971Z,0.00
2018-04-09T01:49:02.990Z,0.00
2018-04-09T01:50:03.007Z,0.00
2018-04-09T01:51:03.037Z,0.00
2018-04-09T01:52:03.055Z,0.00
2018-04-09T01:53:03.076Z,0.00
2018-04-09T01:54:03.102Z,0.00
2018-04-09T01:55:03.119Z,0.00
2018-04-09T01:56:03.141Z,0.00
2018-04-09T01:57:03.165Z,0.00
2018-04-09T01:58:03.184Z,0.00
2018-04-09T01:59:03.211Z,0.00
2018-04-09T02:00:03.234Z,0.00
2018-04-09T02:01:03.248Z,0.00
2018-04-09T02:02:03.273Z,0.00
2018-04-09T02:03:03.294Z,0.00
2018-04-09T02:04:03.312Z,0.00
2018-04-09T02:05:03.344Z,0.00
2018-04-09T02:06:03.357Z,0.00
2018-04-09T02:07:03.384Z,0.00
2018-04-09T02:08:03.407Z,0.00
2018-04-09T02:09:03.426Z,0.00
2018-04-09T02:10:03.449Z,0.00
2018-04-09T02:11:03.466Z,0.00
2018-04-09T02:12:03.486Z,0.00
2018-04-09T02:13:03.516Z,0.00
2018-04-09T02:14:03.588Z,0.00
2018-04-09T02:15:03.555Z,0.00
2018-04-09T02:16:03.573Z,0.00
2018-04-09T02:17:03.602Z,0.00
2018-04-09T02:18:03.628Z,0.00
2018-04-09T02:19:03.638Z,0.00
2018-04-09T02:20:03.663Z,0.00
2018-04-09T02:21:03.687Z,0.00
2018-04-09T02:22:03.703Z,0.00
2018-04-09T02:23:03.733Z,0.00
2018-04-09T02:24:03.748Z,0.00
2018-04-09T02:25:03.771Z,0.00
2018-04-09T02:26:03.797Z,0.00
2018-04-09T02:27:03.812Z,0.00
2018-04-09T02:28:03.842Z,0.00
2018-04-09T02:29:03.854Z,0.00
2018-04-09T02:30:03.884Z,0.00
2018-04-09T02:31:03.898Z,0.00
2018-04-09T02:32:03.928Z,0.00
2018-04-09T02:33:03.948Z,0.00
2018-04-09T02:34:03.976Z,0.00
2018-04-09T02:35:03.989Z,0.00
2018-04-09T02:36:04.014Z,0.00
2018-04-09T02:37:04.030Z,0.00
2018-04-09T02:38:04.055Z,0.00
2018-04-09T02:39:04.081Z,0.00
2018-04-09T02:40:04.103Z,0.00
2018-04-09T02:41:04.117Z,0.00
2018-04-09T02:42:04.141Z,0.00
2018-04-09T02:43:04.162Z,0.00
2018-04-09T02:44:04.180Z,0.00
2018-04-09T02:45:04.210Z,0.00
2018-04-09T02:46:04.229Z,0.00
2018-04-09T02:47:04.248Z,0.00
2018-04-09T02:48:04.267Z,0.00
2018-04-09T02:49:04.296Z,0.00
2018-04-09T02:50:04.311Z,0.00
2018-04-09T02:51:04.337Z,0.00
2018-04-09T02:52:04.361Z,0.00
2018-04-09T02:53:04.373Z,0.00
2018-04-09T02:54:04.397Z,0.00
2018-04-09T02:55:04.424Z,0.00
2018-04-09T02:56:04.443Z,0.00
2018-04-09T02:57:04.463Z,0.00
2018-04-09T02:58:04.490Z,0.00
2018-04-09T02:59:04.502Z,0.00
2018-04-09T03:00:04.528Z,0.00
2018-04-09T03:01:04.551Z,0.00
2018-04-09T03:02:04.570Z,0.00
2018-04-09T03:03:04.595Z,0.00
2018-04-09T03:04:04.614Z,0.00
2018-04-09T03:05:04.636Z,0.00
2018-04-09T03:06:04.657Z,0.00
2018-04-09T03:07:04.679Z,0.00
2018-04-09T03:08:04.702Z,0.00
2018-04-09T03:09:04.721Z,0.00
2018-04-09T03:10:04.741Z,0.00
2018-04-09T03:11:04.761Z,0.00
2018-04-09T03:12:04.786Z,0.00
2018-04-09T03:13:04.808Z,0.00
2018-04-09T03:14:04.831Z,0.00
2018-04-09T03:15:04.849Z,0.00
2018-04-09T03:16:04.868Z,0.00
2018-04-09T03:17:04.897Z,0.00
2018-04-09T03:18:04.911Z,0.00
2018-04-09T03:19:04.944Z,0.00
2018-04-09T03:20:04.960Z,0.00
2018-04-09T03:21:04.978Z,0.00
2018-04-09T03:22:05.000Z,0.00
2018-04-09T03:23:05.024Z,0.00
2018-04-09T03:24:05.048Z,0.00
2018-04-09T03:25:05.063Z,0.00
2018-04-09T03:26:05.081Z,0.00
2018-04-09T03:27:05.112Z,0.00
2018-04-09T03:28:05.128Z,0.00
2018-04-09T03:29:05.148Z,0.00
2018-04-09T03:30:05.178Z,0.00
2018-04-09T03:31:05.195Z,0.00
2018-04-09T03:32:05.219Z,0.00
2018-04-09T03:33:05.231Z,0.00
2018-04-09T03:34:05.256Z,0.00
2018-04-09T03:35:05.281Z,0.00
2018-04-09T03:36:05.305Z,0.00
2018-04-09T03:37:05.317Z,0.00
2018-04-09T03:38:05.342Z,0.00
2018-04-09T03:39:05.368Z,0.00
2018-04-09T03:40:05.386Z,0.00
2018-04-09T03:41:05.406Z,0.00
2018-04-09T03:42:05.431Z,0.00
2018-04-09T03:43:05.450Z,0.00
2018-04-09T03:44:05.475Z,0.00
2018-04-09T03:45:05.488Z,0.00
2018-04-09T03:46:05.515Z,0.00
2018-04-09T03:47:05.537Z,0.00
2018-04-09T03:48:05.558Z,0.00
2018-04-09T03:49:05.581Z,0.00
2018-04-09T03:50:05.595Z,0.00
2018-04-09T03:51:05.623Z,0.00
2018-04-09T03:52:05.645Z,0.00
2018-04-09T03:53:05.660Z,0.00
2018-04-09T03:54:05.687Z,0.00
2018-04-09T03:55:05.700Z,0.00
2018-04-09T03:56:05.725Z,0.00
2018-04-09T03:57:05.752Z,0.00
2018-04-09T03:58:05.770Z,0.00
2018-04-09T03:59:05.793Z,0.00
2018-04-09T04:00:05.814Z,0.00
2018-04-09T04:01:05.830Z,0.00
2018-04-09T04:02:05.857Z,0.00
2018-04-09T04:03:05.869Z,0.00
2018-04-09T04:04:05.900Z,0.00
2018-04-09T04:05:05.918Z,0.00
2018-04-09T04:06:05.936Z,0.00
2018-04-09T04:07:05.961Z,0.00
2018-04-09T04:08:05.985Z,0.00
2018-04-09T04:09:06.019Z,0.00
2018-04-09T04:10:06.024Z,0.00
2018-04-09T04:11:06.043Z,0.00
2018-04-09T04:12:06.061Z,0.00
2018-04-09T04:13:06.092Z,0.00
2018-04-09T04:14:06.107Z,0.00
2018-04-09T04:15:06.130Z,0.00
2018-04-09T04:16:06.148Z,0.00
2018-04-09T04:17:06.169Z,0.00
2018-04-09T04:18:06.194Z,0.00
2018-04-09T04:19:06.217Z,0.00
2018-04-09T04:20:06.235Z,0.00
2018-04-09T04:21:06.253Z,0.00
2018-04-09T04:22:06.278Z,0.00
2018-04-09T04:23:06.297Z,0.00
2018-04-09T04:24:06.320Z,0.00
2018-04-09T04:25:06.338Z,0.00
2018-04-09T04:26:06.360Z,0.00
2018-04-09T04:27:06.385Z,0.00
2018-04-09T04:28:06.402Z,0.00
2018-04-09T04:29:06.425Z,0.00
2018-04-09T04:30:06.441Z,0.00
2018-04-09T04:31:06.475Z,0.00
2018-04-09T04:32:06.483Z,0.00
2018-04-09T04:33:06.507Z,0.00
2018-04-09T04:34:06.533Z,0.00
2018-04-09T04:35:06.553Z,0.00
2018-04-09T04:36:06.577Z,0.00
2018-04-09T04:37:06.589Z,0.00
2018-04-09T04:38:06.619Z,0.00
2018-04-09T04:39:06.630Z,0.00
2018-04-09T04:40:06.660Z,0.00
2018-04-09T04:41:06.672Z,0.00
2018-04-09T04:42:06.694Z,0.00
2018-04-09T04:43:06.723Z,0.00
2018-04-09T04:44:06.736Z,0.00
2018-04-09T04:45:06.763Z,5.63
2018-04-09T04:46:06.785Z,5.63
2018-04-09T04:47:06.804Z,5.63
2018-04-09T04:48:06.826Z,5.63
2018-04-09T04:49:06.840Z,5.63
2018-04-09T04:50:06.867Z,5.63
2018-04-09T04:51:06.893Z,5.63
2018-04-09T04:52:06.910Z,11.25
2018-04-09T04:53:06.935Z,11.25
2018-04-09T04:54:06.954Z,11.25
2018-04-09T04:55:06.969Z,11.25
2018-04-09T04:56:06.988Z,11.25
2018-04-09T04:57:07.020Z,11.25
2018-04-09T04:58:07.030Z,16.88
2018-04-09T04:59:07.055Z,16.88
2018-04-09T05:00:07.078Z,16.88
2018-04-09T05:01:07.092Z,16.88
2018-04-09T05:02:07.118Z,16.88
2018-04-09T05:03:07.141Z,22.50
2018-04-09T05:04:07.626Z,22.50
2018-04-09T05:05:07.177Z,22.50
2018-04-09T05:06:07.208Z,22.50
2018-04-09T05:07:07.217Z,28.13
2018-04-09T05:08:07.245Z,28.13
2018-04-09T05:09:07.262Z,28.13
2018-04-09T05:10:07.288Z,28.13
2018-04-09T05:11:07.302Z,33.75
2018-04-09T05:12:07.377Z,33.75
2018-04-09T05:13:07.341Z,33.75
2018-04-09T05:14:07.363Z,39.38
2018-04-09T05:15:07.392Z,39.38
2018-04-09T05:16:07.406Z,39.38
2018-04-09T05:17:07.437Z,45.00
2018-04-09T05:18:07.451Z,45.00
2018-04-09T05:19:07.467Z,45.00
2018-04-09T05:20:07.490Z,50.63
2018-04-09T05:21:07.509Z,50.63
2018-04-09T05:22:07.534Z,56.25
2018-04-09T05:23:07.558Z,56.25
2018-04-09T05:24:07.577Z,61.88
2018-04-09T05:25:07.595Z,61.88
2018-04-09T05:26:07.614Z,61.88
2018-04-09T05:27:07.643Z,61.88
2018-04-09T05:28:07.656Z,67.50
2018-04-09T05:29:07.685Z,67.50
2018-04-09T05:30:07.705Z,73.13
2018-04-09T05:31:07.721Z,73.13
2018-04-09T05:32:07.800Z,78.75
2018-04-09T05:33:07.760Z,78.75
2018-04-09T05:34:07.781Z,84.38
2018-04-09T05:35:07.804Z,84.38
2018-04-09T05:36:07.826Z,84.38
2018-04-09T05:37:07.847Z,90.00
2018-04-09T05:38:07.868Z,90.00
2018-04-09T05:39:07.894Z,90.00
2018-04-09T05:40:07.917Z,95.63
2018-04-09T05:41:07.930Z,95.63
2018-04-09T05:42:07.959Z,95.63
2018-04-09T05:43:07.973Z,95.63
2018-04-09T05:44:07.996Z,101.25
2018-04-09T05:45:08.020Z,101.25
2018-04-09T05:46:08.036Z,101.25
2018-04-09T05:47:08.068Z,101.25
2018-04-09T05:48:08.090Z,106.88
2018-04-09T05:49:08.168Z,112.50
2018-04-09T05:50:08.122Z,106.88
2018-04-09T05:51:08.146Z,106.88
2018-04-09T05:52:08.171Z,112.50
2018-04-09T05:53:08.188Z,112.50
2018-04-09T05:54:08.216Z,118.13
2018-04-09T05:55:08.229Z,118.13
2018-04-09T05:56:08.258Z,123.75
2018-04-09T05:57:08.270Z,129.38
2018-04-09T05:58:08.296Z,129.38
2018-04-09T05:59:08.320Z,135.00
2018-04-09T06:00:08.338Z,140.63
2018-04-09T06:01:08.362Z,140.63
2018-04-09T06:02:08.384Z,140.63
2018-04-09T06:03:08.402Z,146.25
2018-04-09T06:04:08.427Z,151.88
2018-04-09T06:05:08.491Z,157.50
2018-04-09T06:06:08.472Z,163.13
2018-04-09T06:07:08.489Z,174.38
2018-04-09T06:08:08.508Z,180.00
2018-04-09T06:09:08.615Z,185.63
2018-04-09T06:10:08.548Z,191.25
2018-04-09T06:11:08.578Z,196.88
2018-04-09T06:12:08.591Z,202.50
2018-04-09T06:13:08.620Z,202.50
2018-04-09T06:14:08.634Z,208.13
2018-04-09T06:15:08.664Z,213.75
2018-04-09T06:16:08.758Z,225.00
2018-04-09T06:17:08.706Z,230.63
2018-04-09T06:18:08.727Z,236.25
2018-04-09T06:19:08.741Z,241.88
2018-04-09T06:20:08.770Z,247.50
2018-04-09T06:21:08.783Z,253.13
2018-04-09T06:22:08.804Z,253.13
2018-04-09T06:23:08.835Z,253.13
2018-04-09T06:24:08.849Z,258.75
2018-04-09T06:25:08.876Z,303.75
2018-04-09T06:26:08.898Z,438.75
2018-04-09T06:27:08.912Z,478.13
2018-04-09T06:28:08.942Z,455.63
2018-04-09T06:29:08.956Z,472.50
2018-04-09T06:30:08.980Z,511.88
2018-04-09T06:31:09.004Z,534.38
2018-04-09T06:32:09.028Z,534.38
2018-04-09T06:33:09.041Z,523.13
2018-04-09T06:34:09.070Z,495.00
2018-04-09T06:35:09.089Z,562.50
2018-04-09T06:36:09.110Z,590.63
2018-04-09T06:37:09.139Z,483.75
2018-04-09T06:38:09.161Z,416.25
2018-04-09T06:39:09.176Z,450.00
2018-04-09T06:40:09.200Z,455.63
2018-04-09T06:41:09.226Z,433.13
2018-04-09T06:42:09.243Z,472.50
2018-04-09T06:43:09.301Z,433.13
2018-04-09T06:44:09.292Z,320.63
2018-04-09T06:45:09.314Z,292.50
2018-04-09T06:46:09.335Z,309.38
2018-04-09T06:47:09.370Z,303.75
2018-04-09T06:48:09.384Z,292.50
2018-04-09T06:49:09.474Z,337.50
2018-04-09T06:50:09.433Z,354.38
2018-04-09T06:51:09.493Z,309.38
2018-04-09T06:52:09.474Z,315.00
2018-04-09T06:53:09.500Z,303.75
2018-04-09T06:54:09.516Z,253.13
2018-04-09T06:55:09.542Z,253.13
2018-04-09T06:56:09.568Z,298.13
2018-04-09T06:57:09.590Z,253.13
2018-04-09T06:58:09.616Z,241.88
2018-04-09T06:59:09.698Z,241.88
2018-04-09T07:00:09.664Z,230.63
2018-04-09T07:01:09.678Z,230.63
2018-04-09T07:02:09.703Z,230.63
2018-04-09T07:03:09.742Z,241.88
2018-04-09T07:04:09.751Z,264.38
2018-04-09T07:05:09.777Z,264.38
2018-04-09T07:06:09.799Z,286.88
2018-04-09T07:07:09.820Z,275.63
2018-04-09T07:08:09.846Z,281.25
2018-04-09T07:09:09.865Z,303.75
2018-04-09T07:10:09.888Z,303.75
2018-04-09T07:11:09.909Z,320.63
2018-04-09T07:12:09.941Z,320.63
2018-04-09T07:13:09.956Z,326.25
2018-04-09T07:14:09.983Z,343.13
2018-04-09T07:15:10.004Z,331.88
2018-04-09T07:16:10.054Z,348.75
2018-04-09T07:17:10.066Z,393.75
2018-04-09T07:18:10.087Z,421.88
2018-04-09T07:19:10.102Z,433.13
2018-04-09T07:20:10.116Z,483.75
2018-04-09T07:21:10.146Z,950.63
2018-04-09T07:22:10.173Z,849.38
2018-04-09T07:23:10.185Z,1085.63
2018-04-09T07:24:10.217Z,1170.00
2018-04-09T07:25:10.231Z,1141.88
2018-04-09T07:26:10.273Z,1035.00
2018-04-09T07:27:10.285Z,765.00
2018-04-09T07:28:10.308Z,781.88
2018-04-09T07:29:10.355Z,759.38
2018-04-09T07:30:10.356Z,765.00
2018-04-09T07:31:10.428Z,630.00
2018-04-09T07:32:10.399Z,613.13
2018-04-09T07:33:10.425Z,511.88
2018-04-09T07:34:10.513Z,461.25
2018-04-09T07:35:10.491Z,461.25
2018-04-09T07:36:10.501Z,691.88
2018-04-09T07:37:10.518Z,742.50
2018-04-09T07:38:10.545Z,658.13
2018-04-09T07:39:10.566Z,444.38
2018-04-09T07:40:10.587Z,444.38
2018-04-09T07:41:10.620Z,421.88
2018-04-09T07:42:10.643Z,534.38
2018-04-09T07:43:10.665Z,545.63
2018-04-09T07:44:10.778Z,618.75
2018-04-09T07:45:10.747Z,658.13
2018-04-09T07:46:10.758Z,1186.88
2018-04-09T07:47:10.784Z,1051.88
2018-04-09T07:48:10.816Z,978.75
2018-04-09T07:49:10.896Z,630.00
2018-04-09T07:50:10.866Z,663.75
2018-04-09T07:51:10.903Z,720.00
2018-04-09T07:52:10.922Z,511.88
2018-04-09T07:53:10.944Z,635.63
2018-04-09T07:54:11.020Z,511.88
2018-04-09T07:55:10.979Z,433.13
2018-04-09T07:56:11.015Z,433.13
2018-04-09T07:57:11.034Z,393.75
2018-04-09T07:58:11.058Z,393.75
2018-04-09T07:59:11.143Z,399.38
2018-04-09T08:00:11.100Z,466.88
2018-04-09T08:01:11.135Z,517.50
2018-04-09T08:02:11.164Z,883.13
2018-04-09T08:03:11.187Z,793.13
2018-04-09T08:04:11.248Z,928.13
2018-04-09T08:05:11.203Z,1096.88
2018-04-09T08:06:11.288Z,990.00
2018-04-09T08:07:11.276Z,945.00
2018-04-09T08:08:11.305Z,1237.50
2018-04-09T08:09:11.399Z,1119.38
2018-04-09T08:10:11.344Z,860.63
2018-04-09T08:11:11.385Z,461.25
2018-04-09T08:12:11.404Z,438.75
2018-04-09T08:13:11.431Z,478.13
2018-04-09T08:14:11.506Z,1051.88
2018-04-09T08:15:11.477Z,1288.13
2018-04-09T08:16:11.514Z,888.75
2018-04-09T08:17:11.530Z,630.00
2018-04-09T08:18:11.567Z,630.00
2018-04-09T08:19:11.627Z,607.50
2018-04-09T08:20:11.603Z,624.38
2018-04-09T08:21:11.630Z,500.63
2018-04-09T08:22:11.640Z,455.63
2018-04-09T08:23:11.686Z,478.13
2018-04-09T08:24:11.741Z,478.13
2018-04-09T08:25:11.722Z,534.38
2018-04-09T08:26:11.749Z,770.63
2018-04-09T08:27:11.759Z,905.63
2018-04-09T08:28:11.811Z,1040.63
2018-04-09T08:29:11.807Z,1063.13
2018-04-09T08:30:11.855Z,1046.25
2018-04-09T08:31:11.884Z,967.50
2018-04-09T08:32:11.896Z,1046.25
2018-04-09T08:33:11.913Z,1355.63
2018-04-09T08:34:11.995Z,1243.13
2018-04-09T08:35:11.980Z,1338.75
2018-04-09T08:36:12.008Z,1440.00
2018-04-09T08:37:12.047Z,1260.00
2018-04-09T08:38:12.059Z,984.38
2018-04-09T08:39:12.118Z,1063.13
2018-04-09T08:40:12.079Z,1350.00
2018-04-09T08:41:12.131Z,1226.25
2018-04-09T08:42:12.155Z,1164.38
2018-04-09T08:43:12.182Z,883.13
2018-04-09T08:44:12.267Z,1153.13
2018-04-09T08:45:12.226Z,911.25
2018-04-09T08:46:12.273Z,894.38
2018-04-09T08:47:12.277Z,691.88
2018-04-09T08:48:12.308Z,1018.13
2018-04-09T08:49:12.313Z,528.75
2018-04-09T08:50:12.349Z,495.00
2018-04-09T08:51:12.399Z,590.63
2018-04-09T08:52:12.415Z,652.50
2018-04-09T08:53:12.438Z,663.75
2018-04-09T08:54:12.443Z,663.75
2018-04-09T08:55:12.493Z,759.38
2018-04-09T08:56:12.492Z,838.13
2018-04-09T08:57:12.551Z,748.13
2018-04-09T08:58:12.575Z,770.63
2018-04-09T08:59:12.577Z,697.50
2018-04-09T09:00:12.612Z,748.13
2018-04-09T09:01:12.653Z,742.50
2018-04-09T09:02:12.673Z,708.75
2018-04-09T09:03:12.684Z,804.38
2018-04-09T09:04:12.777Z,871.88
2018-04-09T09:05:12.769Z,916.88
2018-04-09T09:06:12.787Z,1023.75
2018-04-09T09:07:12.801Z,945.00
2018-04-09T09:08:12.849Z,973.13
2018-04-09T09:09:12.917Z,956.25
2018-04-09T09:10:12.877Z,911.25
2018-04-09T09:11:12.915Z,708.75
2018-04-09T09:12:12.916Z,708.75
2018-04-09T09:13:12.944Z,703.13
2018-04-09T09:14:13.025Z,798.75
2018-04-09T09:15:13.028Z,736.88
2018-04-09T09:16:13.049Z,720.00
2018-04-09T09:17:13.076Z,703.13
2018-04-09T09:18:13.073Z,894.38
2018-04-09T09:19:13.096Z,697.50
2018-04-09T09:20:13.130Z,624.38
2018-04-09T09:21:13.202Z,630.00
2018-04-09T09:22:13.173Z,720.00
2018-04-09T09:23:13.232Z,601.88
2018-04-09T09:24:13.353Z,540.00
2018-04-09T09:25:13.259Z,573.75
2018-04-09T09:26:13.315Z,652.50
2018-04-09T09:27:13.310Z,736.88
2018-04-09T09:28:13.332Z,658.13
2018-04-09T09:29:13.363Z,556.88
2018-04-09T09:30:13.391Z,506.25
2018-04-09T09:31:13.409Z,523.13
2018-04-09T09:32:13.441Z,506.25
2018-04-09T09:33:13.458Z,506.25
2018-04-09T09:34:13.490Z,511.88
2018-04-09T09:35:13.512Z,545.63
2018-04-09T09:36:13.536Z,568.13
2018-04-09T09:37:13.564Z,618.75
2018-04-09T09:38:13.591Z,624.38
2018-04-09T09:39:13.613Z,624.38
2018-04-09T09:40:13.648Z,630.00
2018-04-09T09:41:13.664Z,607.50
2018-04-09T09:42:13.699Z,585.00
2018-04-09T09:43:13.715Z,613.13
2018-04-09T09:44:13.744Z,720.00
2018-04-09T09:45:13.772Z,736.88
2018-04-09T09:46:13.791Z,849.38
2018-04-09T09:47:13.825Z,838.13
2018-04-09T09:48:13.848Z,1203.75
2018-04-09T09:49:13.938Z,1096.88
2018-04-09T09:50:13.901Z,894.38
2018-04-09T09:51:13.918Z,871.88
2018-04-09T09:52:13.948Z,1271.25
2018-04-09T09:53:14.018Z,1209.38
2018-04-09T09:54:13.995Z,1406.25
2018-04-09T09:55:14.024Z,1170.00
2018-04-09T09:56:14.053Z,1158.75
2018-04-09T09:57:14.078Z,978.75
2018-04-09T09:58:14.110Z,781.88
2018-04-09T09:59:14.132Z,624.38
2018-04-09T10:00:14.151Z,675.00
2018-04-09T10:01:14.184Z,725.63
2018-04-09T10:02:14.206Z,1051.88
2018-04-09T10:03:14.235Z,1226.25
2018-04-09T10:04:14.263Z,1468.13
2018-04-09T10:05:14.282Z,1260.00
2018-04-09T10:06:14.310Z,984.38
2018-04-09T10:07:14.341Z,849.38
2018-04-09T10:08:14.389Z,1389.38
2018-04-09T10:09:14.456Z,1423.13
2018-04-09T10:10:14.445Z,1462.50
2018-04-09T10:11:14.467Z,1226.25
2018-04-09T10:12:14.487Z,961.88
2018-04-09T10:13:14.528Z,1029.38
2018-04-09T10:14:14.597Z,1012.50
2018-04-09T10:15:14.589Z,1288.13
2018-04-09T10:16:14.607Z,1434.38
2018-04-09T10:17:14.603Z,1496.25
2018-04-09T10:18:14.638Z,1158.75
2018-04-09T10:19:14.655Z,1327.50
2018-04-09T10:20:14.718Z,1423.13
2018-04-09T10:21:14.716Z,1074.38
2018-04-09T10:22:14.740Z,1046.25
2018-04-09T10:23:14.787Z,905.63
2018-04-09T10:24:14.798Z,1023.75
2018-04-09T10:25:14.824Z,1040.63
2018-04-09T10:26:14.856Z,939.38
2018-04-09T10:27:14.878Z,922.50
2018-04-09T10:28:14.907Z,905.63
2018-04-09T10:29:14.938Z,922.50
2018-04-09T10:30:14.962Z,1029.38
2018-04-09T10:31:14.992Z,1164.38
2018-04-09T10:32:15.024Z,1490.63
2018-04-09T10:33:15.042Z,1603.13
2018-04-09T10:34:15.091Z,1231.88
2018-04-09T10:35:15.128Z,1175.63
2018-04-09T10:36:15.126Z,832.50
2018-04-09T10:37:15.161Z,815.63
2018-04-09T10:38:15.185Z,905.63
2018-04-09T10:39:15.233Z,866.25
2018-04-09T10:40:15.240Z,748.13
2018-04-09T10:41:15.266Z,753.75
2018-04-09T10:42:15.300Z,753.75
2018-04-09T10:43:15.325Z,900.00
2018-04-09T10:44:15.355Z,1170.00
2018-04-09T10:45:15.381Z,1209.38
2018-04-09T10:46:15.406Z,1276.88
2018-04-09T10:47:15.445Z,1738.13
2018-04-09T10:48:15.463Z,1530.00
2018-04-09T10:49:15.498Z,1794.38
2018-04-09T10:50:15.528Z,871.88
2018-04-09T10:51:15.546Z,686.25
2018-04-09T10:52:15.583Z,815.63
2018-04-09T10:53:15.602Z,1254.38
2018-04-09T10:54:15.632Z,1046.25
2018-04-09T10:55:15.669Z,849.38
2018-04-09T10:56:15.689Z,731.25
2018-04-09T10:57:15.722Z,731.25
2018-04-09T10:58:15.752Z,804.38
2018-04-09T10:59:15.774Z,860.63
2018-04-09T11:00:15.811Z,866.25
2018-04-09T11:01:15.830Z,1023.75
2018-04-09T11:02:15.862Z,641.25
2018-04-09T11:03:15.909Z,596.25
2018-04-09T11:04:15.941Z,663.75
2018-04-09T11:05:15.960Z,568.13
2018-04-09T11:06:15.984Z,585.00
2018-04-09T11:07:16.037Z,669.38
2018-04-09T11:08:16.049Z,703.13
2018-04-09T11:09:16.133Z,585.00
2018-04-09T11:10:16.109Z,607.50
2018-04-09T11:11:16.143Z,675.00
2018-04-09T11:12:16.184Z,579.38
2018-04-09T11:13:16.198Z,534.38
2018-04-09T11:14:16.272Z,506.25
2018-04-09T11:15:16.286Z,500.63
2018-04-09T11:16:16.275Z,472.50
2018-04-09T11:17:16.303Z,495.00
2018-04-09T11:18:16.328Z,534.38
2018-04-09T11:19:16.413Z,523.13
2018-04-09T11:20:16.387Z,573.75
2018-04-09T11:21:16.418Z,787.50
2018-04-09T11:22:16.448Z,675.00
2018-04-09T11:23:16.444Z,545.63
2018-04-09T11:24:16.474Z,523.13
2018-04-09T11:25:16.510Z,489.38
2018-04-09T11:26:16.531Z,433.13
2018-04-09T11:27:16.558Z,416.25
2018-04-09T11:28:16.581Z,421.88
2018-04-09T11:29:16.680Z,410.63
2018-04-09T11:30:16.666Z,416.25
2018-04-09T11:31:16.702Z,427.50
2018-04-09T11:32:16.699Z,421.88
2018-04-09T11:33:16.730Z,410.63
2018-04-09T11:34:16.747Z,410.63
2018-04-09T11:35:16.793Z,416.25
2018-04-09T11:36:16.814Z,416.25
2018-04-09T11:37:16.837Z,427.50
2018-04-09T11:38:16.894Z,478.13
2018-04-09T11:39:16.936Z,590.63
2018-04-09T11:40:16.909Z,742.50
2018-04-09T11:41:16.986Z,781.88
2018-04-09T11:42:16.965Z,748.13
2018-04-09T11:43:16.991Z,787.50
2018-04-09T11:44:17.018Z,714.38
2018-04-09T11:45:17.045Z,675.00
2018-04-09T11:46:17.074Z,596.25
2018-04-09T11:47:17.098Z,607.50
2018-04-09T11:48:17.127Z,658.13
2018-04-09T11:49:17.150Z,804.38
2018-04-09T11:50:17.173Z,855.00
2018-04-09T11:51:17.209Z,781.88
2018-04-09T11:52:17.227Z,832.50
2018-04-09T11:53:17.280Z,753.75
2018-04-09T11:54:17.311Z,534.38
2018-04-09T11:55:17.326Z,506.25
2018-04-09T11:56:17.363Z,489.38
2018-04-09T11:57:17.359Z,472.50
2018-04-09T11:58:17.392Z,489.38
2018-04-09T11:59:17.490Z,506.25
2018-04-09T12:00:17.474Z,500.63
2018-04-09T12:01:17.481Z,483.75
2018-04-09T12:02:17.513Z,506.25
2018-04-09T12:03:17.546Z,568.13
2018-04-09T12:04:17.548Z,950.63
2018-04-09T12:05:17.578Z,939.38
2018-04-09T12:06:17.628Z,1051.88
2018-04-09T12:07:17.631Z,1113.75
2018-04-09T12:08:17.656Z,1113.75
2018-04-09T12:09:17.708Z,939.38
2018-04-09T12:10:17.715Z,759.38
2018-04-09T12:11:17.736Z,950.63
2018-04-09T12:12:17.782Z,973.13
2018-04-09T12:13:17.788Z,838.13
2018-04-09T12:14:17.823Z,708.75
2018-04-09T12:15:17.847Z,641.25
2018-04-09T12:16:17.901Z,551.25
2018-04-09T12:17:17.895Z,708.75
2018-04-09T12:18:17.928Z,545.63
2018-04-09T12:19:18.027Z,495.00
2018-04-09T12:20:18.007Z,500.63
2018-04-09T12:21:18.014Z,624.38
2018-04-09T12:22:18.038Z,556.88
2018-04-09T12:23:18.063Z,607.50
2018-04-09T12:24:18.089Z,551.25
2018-04-09T12:25:18.123Z,579.38
2018-04-09T12:26:18.147Z,523.13
2018-04-09T12:27:18.175Z,478.13
2018-04-09T12:28:18.206Z,590.63
2018-04-09T12:29:18.225Z,714.38
2018-04-09T12:30:18.257Z,714.38
2018-04-09T12:31:18.290Z,720.00
2018-04-09T12:32:18.314Z,607.50
2018-04-09T12:33:18.338Z,590.63
2018-04-09T12:34:18.369Z,556.88
2018-04-09T12:35:18.390Z,562.50
2018-04-09T12:36:18.434Z,601.88
2018-04-09T12:37:18.451Z,641.25
2018-04-09T12:38:18.479Z,613.13
2018-04-09T12:39:18.497Z,596.25
2018-04-09T12:40:18.527Z,596.25
2018-04-09T12:41:18.557Z,585.00
2018-04-09T12:42:18.579Z,641.25
2018-04-09T12:43:18.616Z,663.75
2018-04-09T12:44:18.640Z,658.13
2018-04-09T12:45:18.664Z,630.00
2018-04-09T12:46:18.696Z,613.13